Putnam Station, New York
Current Conditions -  °F | °C
As of 12:55 PM on Friday 21 Nov 2014 (Local Time) from K6B0 Reporting Station
Scattered Clouds Scattered Clouds  
Wind Chill: -6°   Ceiling: Unl
Heat Index: -2°   Visibility: 10mi
Dew Point: -14°   Wind: 8mph
Humidity: 40%   Direction: 320°NW
Pressure: 30.19"   Gusts: 17mph
Location:  43.74°N, 73.4°W
Report Text: K6B0 211755Z AUTO 32007G15KT 10SM SCT045 SCT050 M02/M14 A3019 RMK AO2 T10201140 11010 21050
Loading
Personal Weather Stations






























Interactive Weather Map New forecast layout! Learn more

10-Day Weather Forecast

Advertisements
Track Severe Weather on mobile